createdAt,value
2022-10-21T00:01:17.524Z,55.00
2022-10-21T00:03:46.379Z,55.10
2022-10-21T00:06:14.886Z,55.00
2022-10-21T00:08:43.455Z,55.00
2022-10-21T00:11:12.108Z,55.10
2022-10-21T00:13:41.006Z,55.10
2022-10-21T00:16:12.778Z,55.10
2022-10-21T00:18:45.335Z,55.10
2022-10-21T00:21:17.722Z,55.10
2022-10-21T00:23:46.663Z,55.20
2022-10-21T00:26:16.770Z,55.10
2022-10-21T00:28:45.324Z,55.20
2022-10-21T00:31:16.803Z,55.20
2022-10-21T00:33:46.685Z,55.20
2022-10-21T00:36:15.784Z,55.20
2022-10-21T00:38:46.138Z,55.30
2022-10-21T00:41:15.916Z,55.30
2022-10-21T00:43:56.894Z,55.30
2022-10-21T00:46:36.914Z,55.40
2022-10-21T00:49:13.630Z,55.40
2022-10-21T00:51:42.960Z,55.40
2022-10-21T00:54:12.013Z,55.30
2022-10-21T00:56:45.719Z,55.40
2022-10-21T00:59:15.552Z,56.00
2022-10-21T01:01:44.109Z,55.50
2022-10-21T01:04:13.999Z,55.50
2022-10-21T01:06:43.714Z,55.60
2022-10-21T01:09:14.096Z,55.50
2022-10-21T01:11:45.884Z,55.50
2022-10-21T01:14:48.803Z,55.60
2022-10-21T01:17:45.759Z,55.60
2022-10-21T01:20:45.439Z,55.60
2022-10-21T01:23:52.399Z,55.60
2022-10-21T01:26:59.040Z,55.70
2022-10-21T01:30:04.936Z,55.70
2022-10-21T01:32:53.552Z,55.70
2022-10-21T01:35:26.292Z,55.70
2022-10-21T01:38:08.272Z,55.70
2022-10-21T01:40:45.618Z,55.70
2022-10-21T01:43:21.031Z,55.80
2022-10-21T01:45:53.566Z,55.80
2022-10-21T01:48:28.732Z,55.80
2022-10-21T01:51:02.139Z,55.90
2022-10-21T01:53:42.116Z,55.90
2022-10-21T01:56:12.853Z,55.90
2022-10-21T01:58:44.537Z,56.00
2022-10-21T02:01:16.105Z,56.10
2022-10-21T02:03:50.720Z,56.10
2022-10-21T02:06:19.420Z,56.20
2022-10-21T02:08:48.316Z,56.10
2022-10-21T02:11:19.074Z,56.10
2022-10-21T02:14:03.139Z,56.20
2022-10-21T02:16:37.834Z,56.30
2022-10-21T02:19:13.175Z,56.30
2022-10-21T02:21:41.929Z,56.40
2022-10-21T02:24:17.307Z,56.40
2022-10-21T02:26:45.955Z,56.50
2022-10-21T02:29:15.556Z,56.50
2022-10-21T02:32:05.375Z,56.40
2022-10-21T02:34:50.315Z,56.60
2022-10-21T02:37:28.370Z,56.60
2022-10-21T02:40:02.913Z,56.50
2022-10-21T02:42:38.318Z,56.40
2022-10-21T02:45:08.974Z,56.50
2022-10-21T02:47:38.671Z,56.50
2022-10-21T02:50:09.676Z,56.50
2022-10-21T02:52:38.215Z,56.50
2022-10-21T02:55:07.709Z,56.50
2022-10-21T02:57:36.520Z,56.60
2022-10-21T03:00:07.079Z,56.60
2022-10-21T03:02:35.698Z,56.60
2022-10-21T03:05:04.476Z,56.50
2022-10-21T03:07:34.387Z,56.60
2022-10-21T03:10:03.013Z,56.60
2022-10-21T03:12:31.552Z,56.70
2022-10-21T03:15:00.043Z,56.60
2022-10-21T03:17:28.608Z,56.60
2022-10-21T03:19:57.120Z,56.60
2022-10-21T03:22:25.844Z,56.60
2022-10-21T03:24:55.789Z,56.60
2022-10-21T03:27:24.354Z,56.60
2022-10-21T03:29:52.849Z,56.60
2022-10-21T03:32:21.467Z,56.60
2022-10-21T03:34:49.965Z,56.50
2022-10-21T03:37:18.517Z,56.50
2022-10-21T03:39:47.067Z,56.40
2022-10-21T03:42:17.026Z,56.50
2022-10-21T03:44:45.525Z,56.50
2022-10-21T03:47:14.193Z,56.50
2022-10-21T03:49:42.692Z,56.50
2022-10-21T03:52:11.204Z,56.40
2022-10-21T03:54:39.813Z,56.40
2022-10-21T03:57:09.182Z,56.50
2022-10-21T03:59:39.045Z,56.50
2022-10-21T04:02:07.713Z,56.50
2022-10-21T04:04:36.320Z,56.60
2022-10-21T04:07:04.849Z,56.50
2022-10-21T04:09:33.420Z,56.50
2022-10-21T04:12:01.978Z,56.50
2022-10-21T04:14:30.483Z,56.60
2022-10-21T04:17:06.798Z,56.50
2022-10-21T04:19:35.910Z,56.60
2022-10-21T04:22:04.882Z,57.10
2022-10-21T04:24:33.374Z,56.60
2022-10-21T04:27:01.999Z,56.60
2022-10-21T04:29:30.551Z,56.50
2022-10-21T04:32:00.461Z,56.50
2022-10-21T04:34:28.977Z,56.50
2022-10-21T04:37:01.051Z,56.50
2022-10-21T04:39:32.692Z,56.50
2022-10-21T04:42:01.423Z,56.50
2022-10-21T04:44:29.964Z,56.50
2022-10-21T04:46:59.891Z,56.50
2022-10-21T04:49:29.998Z,56.60
2022-10-21T04:51:58.493Z,56.60
2022-10-21T04:54:27.091Z,56.60
2022-10-21T04:56:55.683Z,56.50
2022-10-21T04:59:24.271Z,56.50
2022-10-21T05:01:52.854Z,56.60
2022-10-21T05:04:23.049Z,56.60
2022-10-21T05:06:51.545Z,56.60
2022-10-21T05:09:20.647Z,57.20
2022-10-21T05:11:49.398Z,56.70
2022-10-21T05:14:21.745Z,56.70
2022-10-21T05:16:51.461Z,56.70
2022-10-21T05:19:20.123Z,56.70
2022-10-21T05:21:50.013Z,56.80
2022-10-21T05:24:19.983Z,56.80
2022-10-21T05:26:48.520Z,56.80
2022-10-21T05:29:17.132Z,56.90
2022-10-21T05:31:45.860Z,56.80
2022-10-21T05:34:14.409Z,56.90
2022-10-21T05:36:42.886Z,57.50
2022-10-21T05:39:12.828Z,56.90
2022-10-21T05:41:44.111Z,57.00
2022-10-21T05:44:15.654Z,56.90
2022-10-21T05:46:44.155Z,57.00
2022-10-21T05:49:13.190Z,56.90
2022-10-21T05:51:41.799Z,57.00
2022-10-21T05:54:10.352Z,57.10
2022-10-21T05:56:42.520Z,57.00
2022-10-21T05:59:11.363Z,57.00
2022-10-21T06:01:40.384Z,57.00
2022-10-21T06:04:09.496Z,57.10
2022-10-21T06:06:38.108Z,57.10
2022-10-21T06:09:06.769Z,57.10
2022-10-21T06:11:35.307Z,57.20
2022-10-21T06:14:05.489Z,57.10
2022-10-21T06:16:35.303Z,57.20
2022-10-21T06:19:04.380Z,57.10
2022-10-21T06:21:32.888Z,57.20
2022-10-21T06:24:01.429Z,57.20
2022-10-21T06:26:32.043Z,57.20
2022-10-21T06:29:04.590Z,57.20
2022-10-21T06:31:33.228Z,57.30
2022-10-21T06:34:01.778Z,57.30
2022-10-21T06:36:30.589Z,57.40
2022-10-21T06:38:59.190Z,57.40
2022-10-21T06:41:27.838Z,57.40
2022-10-21T06:43:56.391Z,57.40
2022-10-21T06:46:26.792Z,57.40
2022-10-21T06:48:55.367Z,57.50
2022-10-21T06:51:25.645Z,57.50
2022-10-21T06:53:57.248Z,57.60
2022-10-21T06:56:27.535Z,57.60
2022-10-21T06:58:59.245Z,57.70
2022-10-21T07:01:48.068Z,57.70
2022-10-21T07:04:21.838Z,57.70
2022-10-21T07:06:50.507Z,57.80
2022-10-21T07:09:19.324Z,57.80
2022-10-21T07:11:47.987Z,57.80
2022-10-21T07:14:16.568Z,57.80
2022-10-21T07:16:47.280Z,57.90
2022-10-21T07:19:16.017Z,58.00
2022-10-21T07:21:44.641Z,58.00
2022-10-21T07:24:13.166Z,58.30
2022-10-21T07:26:42.359Z,58.00
2022-10-21T07:29:11.079Z,58.10
2022-10-21T07:31:40.539Z,58.00
2022-10-21T07:34:13.127Z,58.10
2022-10-21T07:36:43.945Z,58.10
2022-10-21T07:39:16.718Z,58.10
2022-10-21T07:41:49.031Z,58.10
2022-10-21T07:44:17.940Z,58.10
2022-10-21T07:46:47.603Z,58.10
2022-10-21T07:49:19.302Z,58.10
2022-10-21T07:51:50.230Z,58.20
2022-10-21T07:54:21.592Z,58.20
2022-10-21T07:56:52.967Z,58.20
2022-10-21T07:59:23.199Z,58.20
2022-10-21T08:01:53.296Z,58.20
2022-10-21T08:04:29.842Z,58.20
2022-10-21T08:07:00.353Z,58.20
2022-10-21T08:09:28.920Z,58.20
2022-10-21T08:11:58.261Z,58.20
2022-10-21T08:14:27.081Z,58.10
2022-10-21T08:16:56.831Z,58.20
2022-10-21T08:19:29.743Z,58.20
2022-10-21T08:22:00.858Z,58.10
2022-10-21T08:24:29.915Z,58.10
2022-10-21T08:26:58.594Z,58.10
2022-10-21T08:29:27.263Z,58.00
2022-10-21T08:31:55.770Z,58.10
2022-10-21T08:34:24.446Z,58.00
2022-10-21T08:36:54.407Z,58.00
2022-10-21T08:39:25.058Z,57.90
2022-10-21T08:42:12.224Z,58.00
2022-10-21T08:44:55.586Z,57.90
2022-10-21T08:47:34.596Z,58.00
2022-10-21T08:50:06.611Z,57.90
2022-10-21T08:52:46.040Z,57.80
2022-10-21T08:55:22.363Z,57.90
2022-10-21T08:57:53.546Z,57.80
2022-10-21T09:00:25.909Z,57.80
2022-10-21T09:03:17.596Z,57.70
2022-10-21T09:06:11.055Z,57.70
2022-10-21T09:08:57.219Z,57.70
2022-10-21T09:11:37.958Z,57.70
2022-10-21T09:17:21.263Z,57.70
2022-10-21T09:20:00.116Z,57.50
2022-10-21T09:22:46.117Z,57.50
2022-10-21T09:25:27.705Z,57.60
2022-10-21T09:27:57.726Z,57.50
2022-10-21T09:30:27.301Z,57.60
2022-10-21T09:32:59.660Z,57.60
2022-10-21T09:35:34.829Z,57.70
2022-10-21T09:38:12.096Z,57.70
2022-10-21T09:40:42.134Z,57.70
2022-10-21T09:43:19.225Z,57.70
2022-10-21T09:45:48.643Z,57.60
2022-10-21T09:48:32.423Z,57.50
2022-10-21T09:51:11.852Z,57.60
2022-10-21T09:53:53.654Z,57.50
2022-10-21T09:56:29.472Z,57.60
2022-10-21T09:59:08.122Z,57.60
2022-10-21T10:01:38.736Z,57.60
2022-10-21T10:04:20.770Z,57.50
2022-10-21T10:06:49.553Z,57.40
2022-10-21T10:09:26.956Z,57.30
2022-10-21T10:11:59.496Z,57.40
2022-10-21T10:14:35.042Z,57.20
2022-10-21T10:17:29.027Z,57.20
2022-10-21T10:20:19.372Z,57.20
2022-10-21T10:23:08.800Z,57.10
2022-10-21T10:25:40.263Z,57.10
2022-10-21T10:28:23.950Z,57.00
2022-10-21T10:30:56.025Z,57.10
2022-10-21T10:33:29.175Z,57.00
2022-10-21T10:36:00.482Z,57.60
2022-10-21T10:38:35.402Z,56.90
2022-10-21T10:41:09.839Z,57.00
2022-10-21T10:43:47.459Z,56.90
2022-10-21T10:46:26.251Z,56.90
2022-10-21T10:48:55.942Z,56.80
2022-10-21T10:51:28.673Z,56.80
2022-10-21T10:54:17.667Z,56.70
2022-10-21T10:56:57.239Z,56.60
2022-10-21T10:59:38.057Z,56.70
2022-10-21T11:02:24.812Z,56.70
2022-10-21T11:05:18.405Z,56.80
2022-10-21T11:07:50.134Z,56.80
2022-10-21T11:10:35.292Z,56.80
2022-10-21T11:13:07.111Z,56.90
2022-10-21T11:16:03.068Z,56.80
2022-10-21T11:18:39.097Z,56.90
2022-10-21T11:21:22.061Z,56.70
2022-10-21T11:24:23.212Z,56.70
2022-10-21T11:26:59.844Z,56.90
2022-10-21T11:29:42.089Z,56.80
2022-10-21T11:32:32.300Z,56.90
2022-10-21T11:35:18.837Z,56.90
2022-10-21T11:38:01.244Z,56.90
2022-10-21T11:40:38.840Z,56.90
2022-10-21T11:43:23.207Z,56.90
2022-10-21T11:46:01.282Z,57.00
2022-10-21T11:48:46.572Z,57.00
2022-10-21T11:51:28.764Z,57.10
2022-10-21T11:54:20.204Z,57.10
2022-10-21T11:56:56.970Z,57.20
2022-10-21T11:59:45.085Z,57.10
2022-10-21T12:02:21.044Z,57.20
2022-10-21T12:05:02.382Z,57.30
2022-10-21T12:07:51.680Z,57.40
2022-10-21T12:10:31.528Z,57.50
2022-10-21T12:13:06.637Z,57.50
2022-10-21T12:15:41.465Z,57.50
2022-10-21T12:18:17.360Z,57.50
2022-10-21T12:20:50.809Z,57.50
2022-10-21T12:23:22.376Z,57.50
2022-10-21T12:26:06.540Z,57.50
2022-10-21T12:28:40.651Z,57.50
2022-10-21T12:31:34.667Z,57.50
2022-10-21T12:34:04.869Z,57.60
2022-10-21T12:36:45.098Z,57.50
2022-10-21T12:39:21.721Z,57.60
2022-10-21T12:41:50.457Z,57.70
2022-10-21T12:44:25.965Z,57.50
2022-10-21T12:46:57.221Z,57.70
2022-10-21T12:49:32.855Z,57.70
2022-10-21T12:52:10.864Z,57.70
2022-10-21T12:54:52.500Z,57.80
2022-10-21T12:57:31.690Z,57.80
2022-10-21T13:00:32.840Z,57.80
2022-10-21T13:03:03.805Z,58.50
2022-10-21T13:06:03.231Z,57.80
2022-10-21T13:08:52.610Z,58.00
2022-10-21T13:11:25.284Z,57.90
2022-10-21T13:14:36.333Z,57.80
2022-10-21T13:17:34.993Z,58.10
2022-10-21T13:20:47.652Z,58.10
2022-10-21T13:23:39.770Z,58.00
2022-10-21T13:26:21.599Z,58.10
2022-10-21T13:29:09.454Z,58.00
2022-10-21T13:31:40.663Z,58.00
2022-10-21T13:34:29.545Z,57.70
2022-10-21T13:36:58.820Z,58.00
2022-10-21T13:39:32.558Z,57.70
2022-10-21T13:42:04.439Z,57.80
2022-10-21T13:44:37.245Z,57.80
2022-10-21T13:47:31.709Z,57.80
2022-10-21T13:50:15.670Z,58.00
2022-10-21T13:53:27.170Z,57.80
2022-10-21T13:56:03.938Z,57.70
2022-10-21T13:58:39.283Z,57.70
2022-10-21T14:01:13.715Z,57.60
2022-10-21T14:03:44.005Z,57.70
2022-10-21T14:06:19.491Z,57.70
2022-10-21T14:08:49.639Z,57.80
2022-10-21T14:11:24.183Z,57.80
2022-10-21T14:13:53.224Z,57.80
2022-10-21T14:16:28.237Z,57.80
2022-10-21T14:18:57.401Z,57.80
2022-10-21T14:21:29.392Z,57.90
2022-10-21T14:23:58.672Z,58.00
2022-10-21T14:26:32.700Z,58.00
2022-10-21T14:29:02.823Z,58.00
2022-10-21T14:31:31.806Z,58.00
2022-10-21T14:34:00.364Z,58.00
2022-10-21T14:36:30.288Z,58.10
2022-10-21T14:39:01.568Z,58.10
2022-10-21T14:41:37.108Z,58.20
2022-10-21T14:44:16.056Z,58.30
2022-10-21T14:46:46.395Z,58.40
2022-10-21T14:49:24.216Z,58.30
2022-10-21T14:52:00.192Z,58.50
2022-10-21T14:54:37.179Z,58.50
2022-10-21T14:57:07.227Z,58.50
2022-10-21T14:59:41.018Z,58.50
2022-10-21T15:02:30.367Z,58.50
2022-10-21T15:05:01.270Z,58.60
2022-10-21T15:07:32.611Z,58.50
2022-10-21T15:10:15.963Z,58.60
2022-10-21T15:12:50.354Z,58.70
2022-10-21T15:15:52.542Z,58.70
2022-10-21T15:18:26.306Z,58.90
2022-10-21T15:20:58.844Z,58.70
2022-10-21T15:23:31.963Z,58.80
2022-10-21T15:26:05.783Z,58.80
2022-10-21T15:28:36.645Z,58.80
2022-10-21T15:31:12.173Z,58.90
2022-10-21T15:33:40.767Z,58.90
2022-10-21T15:36:11.722Z,58.80
2022-10-21T15:38:46.633Z,58.90
2022-10-21T15:41:17.644Z,58.90
2022-10-21T15:43:58.262Z,58.90
2022-10-21T15:46:27.732Z,59.00
2022-10-21T15:48:56.919Z,58.90
2022-10-21T15:51:25.454Z,58.90
2022-10-21T15:53:54.027Z,58.90
2022-10-21T15:56:22.521Z,58.90
2022-10-21T15:58:52.400Z,58.90
2022-10-21T16:01:21.057Z,58.90
2022-10-21T16:03:49.627Z,58.90
2022-10-21T16:06:21.345Z,59.00
2022-10-21T16:08:53.156Z,59.00
2022-10-21T16:11:34.637Z,59.10
2022-10-21T16:14:14.432Z,59.10
2022-10-21T16:16:47.702Z,59.10
2022-10-21T16:19:17.620Z,59.20
2022-10-21T16:21:46.755Z,59.10
2022-10-21T16:24:15.366Z,59.20
2022-10-21T16:26:47.508Z,59.80
2022-10-21T16:29:22.646Z,59.30
2022-10-21T16:31:52.285Z,59.30
2022-10-21T16:34:20.933Z,59.40
2022-10-21T16:36:49.649Z,59.30
2022-10-21T16:39:20.749Z,59.40
2022-10-21T16:41:49.629Z,59.50
2022-10-21T16:44:19.834Z,59.50
2022-10-21T16:46:52.421Z,59.50
2022-10-21T16:49:25.017Z,59.50
2022-10-21T16:51:53.939Z,59.50
2022-10-21T16:54:24.520Z,59.50
2022-10-21T16:56:55.222Z,59.50
2022-10-21T16:59:25.722Z,59.40
2022-10-21T17:01:54.217Z,59.50
2022-10-21T17:04:22.783Z,59.40
2022-10-21T17:06:51.430Z,59.40
2022-10-21T17:09:20.532Z,59.40
2022-10-21T17:11:49.129Z,59.40
2022-10-21T17:14:21.243Z,59.30
2022-10-21T17:16:51.105Z,59.40
2022-10-21T17:19:19.771Z,59.40
2022-10-21T17:21:48.351Z,59.40
2022-10-21T17:24:18.941Z,59.40
2022-10-21T17:26:47.592Z,59.40
2022-10-21T17:29:16.132Z,59.40
2022-10-21T17:31:44.936Z,59.50
2022-10-21T17:34:29.985Z,59.50
2022-10-21T17:36:58.737Z,59.70
2022-10-21T17:39:27.743Z,59.50
2022-10-21T17:41:56.262Z,59.60
2022-10-21T17:44:24.895Z,59.60
2022-10-21T17:46:54.715Z,59.70
2022-10-21T17:49:26.299Z,59.70
2022-10-21T17:51:54.984Z,59.80
2022-10-21T17:54:27.863Z,59.80
2022-10-21T17:56:58.895Z,59.80
2022-10-21T17:59:27.464Z,59.90
2022-10-21T18:01:55.999Z,60.00
2022-10-21T18:04:25.951Z,60.00
2022-10-21T18:06:54.449Z,60.00
2022-10-21T18:09:23.097Z,60.00
2022-10-21T18:11:51.720Z,60.00
2022-10-21T18:14:20.227Z,60.00
2022-10-21T18:16:48.717Z,60.00
2022-10-21T18:19:18.471Z,60.00
2022-10-21T18:21:48.346Z,60.00
2022-10-21T18:24:17.180Z,60.00
2022-10-21T18:26:45.688Z,60.00
2022-10-21T18:29:15.656Z,60.00
2022-10-21T18:31:44.258Z,60.00
2022-10-21T18:34:13.884Z,60.00
2022-10-21T18:36:43.337Z,60.00
2022-10-21T18:39:14.154Z,60.00
2022-10-21T18:41:43.250Z,60.10
2022-10-21T18:44:14.998Z,60.00
2022-10-21T18:46:46.650Z,60.10
2022-10-21T18:49:18.434Z,60.00
2022-10-21T18:51:46.957Z,60.10
2022-10-21T18:54:16.985Z,60.10
2022-10-21T18:56:45.540Z,60.10
2022-10-21T18:59:14.227Z,60.10
2022-10-21T19:01:42.832Z,60.10
2022-10-21T19:06:47.342Z,60.10
2022-10-21T19:09:19.912Z,60.20
2022-10-21T19:11:48.798Z,60.20
2022-10-21T19:14:17.726Z,60.10
2022-10-21T19:16:49.296Z,60.20
2022-10-21T19:19:18.520Z,60.20
2022-10-21T19:21:47.042Z,60.10
2022-10-21T19:24:16.949Z,60.20
2022-10-21T19:26:47.094Z,60.30
2022-10-21T19:29:19.857Z,60.40
2022-10-21T19:31:48.842Z,60.40
2022-10-21T19:34:21.000Z,60.40
2022-10-21T19:36:50.297Z,60.50
2022-10-21T19:39:20.563Z,60.50
2022-10-21T19:41:49.694Z,60.50
2022-10-21T19:44:18.500Z,60.50
2022-10-21T19:46:47.021Z,60.50
2022-10-21T19:49:16.120Z,60.50
2022-10-21T19:51:44.667Z,60.60
2022-10-21T19:54:15.085Z,60.60
2022-10-21T19:56:45.000Z,60.70
2022-10-21T19:59:15.919Z,60.70
2022-10-21T20:01:44.543Z,60.60
2022-10-21T20:04:13.145Z,60.60
2022-10-21T20:06:42.409Z,60.60
2022-10-21T20:09:13.349Z,60.60
2022-10-21T20:11:43.949Z,60.70
2022-10-21T20:14:14.142Z,60.70
2022-10-21T20:16:44.223Z,60.80
2022-10-21T20:19:13.564Z,60.80
2022-10-21T20:21:43.256Z,60.80
2022-10-21T20:24:14.441Z,60.80
2022-10-21T20:26:49.139Z,60.80
2022-10-21T20:29:18.730Z,60.80
2022-10-21T20:31:47.621Z,60.80
2022-10-21T20:34:16.451Z,60.90
2022-10-21T20:36:46.464Z,60.90
2022-10-21T20:39:15.648Z,60.90
2022-10-21T20:41:45.645Z,60.90
2022-10-21T20:44:17.591Z,60.90
2022-10-21T20:46:47.588Z,61.00
2022-10-21T20:49:16.745Z,60.90
2022-10-21T20:51:45.445Z,60.90
2022-10-21T20:54:17.864Z,60.90
2022-10-21T20:56:48.054Z,61.00
2022-10-21T20:59:17.849Z,60.90
2022-10-21T21:01:48.310Z,60.90
2022-10-21T21:04:20.809Z,60.80
2022-10-21T21:06:51.703Z,60.80
2022-10-21T21:09:57.820Z,60.80
2022-10-21T21:12:14.316Z,60.80
2022-10-21T21:14:42.970Z,60.90
2022-10-21T21:17:11.947Z,60.80
2022-10-21T21:19:41.076Z,60.80
2022-10-21T21:22:09.816Z,60.80
2022-10-21T21:24:38.651Z,60.80
2022-10-21T21:27:09.213Z,60.90
2022-10-21T21:29:40.084Z,60.80
2022-10-21T21:32:09.885Z,60.80
2022-10-21T21:34:39.890Z,60.80
2022-10-21T21:37:08.913Z,60.90
2022-10-21T21:39:37.555Z,60.80
2022-10-21T21:42:06.725Z,60.80
2022-10-21T21:44:35.752Z,60.70
2022-10-21T21:47:06.204Z,60.70
2022-10-21T21:49:35.518Z,60.80
2022-10-21T21:52:04.108Z,60.90
2022-10-21T21:54:32.712Z,60.80
2022-10-21T21:57:27.387Z,60.80
2022-10-21T21:59:49.739Z,60.80
2022-10-21T22:02:19.674Z,60.90
2022-10-21T22:04:48.676Z,60.90
2022-10-21T22:07:17.204Z,60.90
2022-10-21T22:09:45.810Z,60.90
2022-10-21T22:12:15.078Z,61.00
2022-10-21T22:14:44.321Z,61.00
2022-10-21T22:17:13.886Z,61.10
2022-10-21T22:19:44.050Z,61.20
2022-10-21T22:22:12.690Z,61.20
2022-10-21T22:24:42.163Z,61.00
2022-10-21T22:27:10.726Z,61.20
2022-10-21T22:29:39.348Z,61.20
2022-10-21T22:32:08.137Z,61.30
2022-10-21T22:34:37.749Z,61.30
2022-10-21T22:37:08.253Z,61.30
2022-10-21T22:39:36.784Z,61.50
2022-10-21T22:42:06.514Z,61.40
2022-10-21T22:44:35.132Z,61.50
2022-10-21T22:47:03.772Z,61.50
2022-10-21T22:49:32.645Z,61.50
2022-10-21T22:52:01.585Z,61.40
2022-10-21T22:54:48.665Z,61.50
2022-10-21T22:57:18.529Z,61.50
2022-10-21T22:59:52.133Z,61.50
2022-10-21T23:02:22.215Z,61.40
2022-10-21T23:04:50.734Z,61.40
2022-10-21T23:07:19.290Z,61.40
2022-10-21T23:09:51.370Z,61.50
2022-10-21T23:12:19.925Z,61.50
2022-10-21T23:14:48.532Z,61.50
2022-10-21T23:17:17.060Z,61.60
2022-10-21T23:19:45.767Z,61.50
2022-10-21T23:22:14.975Z,61.40
2022-10-21T23:24:43.537Z,61.50
2022-10-21T23:27:13.612Z,61.30
2022-10-21T23:29:42.203Z,61.30
2022-10-21T23:32:10.949Z,61.30
2022-10-21T23:34:39.473Z,61.40
2022-10-21T23:37:08.144Z,61.30
2022-10-21T23:39:37.184Z,61.40
2022-10-21T23:42:06.235Z,61.30
2022-10-21T23:44:36.245Z,61.30
2022-10-21T23:47:05.104Z,61.40
2022-10-21T23:49:33.627Z,61.30
2022-10-21T23:52:02.338Z,61.40
2022-10-21T23:54:31.671Z,61.40
2022-10-21T23:57:00.430Z,61.40
2022-10-21T23:59:29.019Z,61.50
